sensor_id;sensor_type;location;lat;lon;timestamp;P1;durP1;ratioP1;P2;durP2;ratioP2
64242;SDS011;50573;51.512;5.386;2023-06-26T00:03:23;9.53;;;8.40;;
64242;SDS011;50573;51.512;5.386;2023-06-26T00:13:26;14.40;;;8.65;;
64242;SDS011;50573;51.512;5.386;2023-06-26T00:23:31;9.73;;;8.53;;
64242;SDS011;50573;51.512;5.386;2023-06-26T00:33:40;13.35;;;9.88;;
64242;SDS011;50573;51.512;5.386;2023-06-26T00:43:45;13.33;;;9.93;;
64242;SDS011;50573;51.512;5.386;2023-06-26T00:53:48;12.63;;;9.85;;
64242;SDS011;50573;51.512;5.386;2023-06-26T01:03:53;11.32;;;10.10;;
64242;SDS011;50573;51.512;5.386;2023-06-26T01:13:59;13.80;;;9.73;;
64242;SDS011;50573;51.512;5.386;2023-06-26T01:24:07;15.25;;;9.25;;
64242;SDS011;50573;51.512;5.386;2023-06-26T01:34:17;11.15;;;8.98;;
64242;SDS011;50573;51.512;5.386;2023-06-26T01:44:26;10.10;;;7.63;;
64242;SDS011;50573;51.512;5.386;2023-06-26T01:54:33;10.55;;;7.63;;
64242;SDS011;50573;51.512;5.386;2023-06-26T02:04:41;10.57;;;7.28;;
64242;SDS011;50573;51.512;5.386;2023-06-26T02:14:46;11.97;;;6.93;;
64242;SDS011;50573;51.512;5.386;2023-06-26T02:24:50;12.02;;;6.63;;
64242;SDS011;50573;51.512;5.386;2023-06-26T02:34:54;7.93;;;6.10;;
64242;SDS011;50573;51.512;5.386;2023-06-26T02:44:57;8.32;;;5.68;;
64242;SDS011;50573;51.512;5.386;2023-06-26T02:55:04;13.50;;;6.22;;
64242;SDS011;50573;51.512;5.386;2023-06-26T03:05:08;9.80;;;6.18;;
64242;SDS011;50573;51.512;5.386;2023-06-26T03:15:13;12.15;;;6.43;;
64242;SDS011;50573;51.512;5.386;2023-06-26T03:25:17;13.30;;;6.55;;
64242;SDS011;50573;51.512;5.386;2023-06-26T03:35:22;14.80;;;6.07;;
64242;SDS011;50573;51.512;5.386;2023-06-26T03:45:26;18.05;;;7.45;;
64242;SDS011;50573;51.512;5.386;2023-06-26T03:55:30;17.55;;;7.07;;
64242;SDS011;50573;51.512;5.386;2023-06-26T04:05:34;19.27;;;7.35;;
64242;SDS011;50573;51.512;5.386;2023-06-26T04:15:39;18.10;;;7.25;;
64242;SDS011;50573;51.512;5.386;2023-06-26T04:25:42;21.60;;;7.82;;
64242;SDS011;50573;51.512;5.386;2023-06-26T04:35:47;23.23;;;7.82;;
64242;SDS011;50573;51.512;5.386;2023-06-26T04:45:51;24.58;;;8.00;;
64242;SDS011;50573;51.512;5.386;2023-06-26T04:55:55;16.70;;;6.77;;
64242;SDS011;50573;51.512;5.386;2023-06-26T05:05:58;28.67;;;8.57;;
64242;SDS011;50573;51.512;5.386;2023-06-26T05:16:10;27.67;;;7.80;;
64242;SDS011;50573;51.512;5.386;2023-06-26T05:26:14;21.25;;;8.02;;
64242;SDS011;50573;51.512;5.386;2023-06-26T05:36:18;25.00;;;7.37;;
64242;SDS011;50573;51.512;5.386;2023-06-26T05:46:25;24.35;;;7.28;;
64242;SDS011;50573;51.512;5.386;2023-06-26T05:56:30;23.10;;;6.33;;
64242;SDS011;50573;51.512;5.386;2023-06-26T06:06:33;23.63;;;5.63;;
64242;SDS011;50573;51.512;5.386;2023-06-26T06:16:38;19.25;;;5.53;;
64242;SDS011;50573;51.512;5.386;2023-06-26T06:26:41;18.65;;;5.25;;
64242;SDS011;50573;51.512;5.386;2023-06-26T06:36:45;18.30;;;5.23;;
64242;SDS011;50573;51.512;5.386;2023-06-26T06:46:48;21.10;;;4.80;;
64242;SDS011;50573;51.512;5.386;2023-06-26T06:56:53;15.20;;;4.47;;
64242;SDS011;50573;51.512;5.386;2023-06-26T07:06:56;14.75;;;4.55;;
64242;SDS011;50573;51.512;5.386;2023-06-26T07:17:00;12.53;;;3.53;;
64242;SDS011;50573;51.512;5.386;2023-06-26T07:27:03;11.52;;;3.47;;
64242;SDS011;50573;51.512;5.386;2023-06-26T07:37:08;14.57;;;3.90;;
64242;SDS011;50573;51.512;5.386;2023-06-26T07:47:11;9.55;;;3.90;;
64242;SDS011;50573;51.512;5.386;2023-06-26T07:57:16;10.27;;;2.77;;
64242;SDS011;50573;51.512;5.386;2023-06-26T08:07:19;7.57;;;2.13;;
64242;SDS011;50573;51.512;5.386;2023-06-26T08:17:23;6.63;;;1.73;;
64242;SDS011;50573;51.512;5.386;2023-06-26T08:27:31;7.55;;;1.88;;
64242;SDS011;50573;51.512;5.386;2023-06-26T08:37:36;9.95;;;1.90;;
64242;SDS011;50573;51.512;5.386;2023-06-26T08:47:39;8.65;;;2.05;;
64242;SDS011;50573;51.512;5.386;2023-06-26T08:57:46;6.72;;;1.70;;
64242;SDS011;50573;51.512;5.386;2023-06-26T09:07:49;5.82;;;1.80;;
64242;SDS011;50573;51.512;5.386;2023-06-26T09:17:55;7.07;;;1.65;;
64242;SDS011;50573;51.512;5.386;2023-06-26T09:28:00;8.55;;;1.85;;
64242;SDS011;50573;51.512;5.386;2023-06-26T09:38:04;10.07;;;1.30;;
64242;SDS011;50573;51.512;5.386;2023-06-26T09:48:08;8.23;;;1.65;;
64242;SDS011;50573;51.512;5.386;2023-06-26T09:58:13;5.90;;;1.70;;
64242;SDS011;50573;51.512;5.386;2023-06-26T10:08:19;6.68;;;1.48;;
64242;SDS011;50573;51.512;5.386;2023-06-26T10:18:24;3.50;;;1.20;;
64242;SDS011;50573;51.512;5.386;2023-06-26T10:28:30;4.63;;;1.70;;
64242;SDS011;50573;51.512;5.386;2023-06-26T10:38:49;4.15;;;1.63;;
64242;SDS011;50573;51.512;5.386;2023-06-26T10:48:56;8.30;;;1.75;;
64242;SDS011;50573;51.512;5.386;2023-06-26T10:59:12;4.72;;;1.10;;
64242;SDS011;50573;51.512;5.386;2023-06-26T11:09:18;11.48;;;1.63;;
64242;SDS011;50573;51.512;5.386;2023-06-26T11:19:28;6.40;;;1.73;;
64242;SDS011;50573;51.512;5.386;2023-06-26T11:29:31;8.70;;;1.75;;
64242;SDS011;50573;51.512;5.386;2023-06-26T11:39:37;7.80;;;1.83;;
64242;SDS011;50573;51.512;5.386;2023-06-26T11:49:44;7.40;;;1.75;;
64242;SDS011;50573;51.512;5.386;2023-06-26T11:59:50;4.30;;;1.20;;
64242;SDS011;50573;51.512;5.386;2023-06-26T12:09:57;4.22;;;1.60;;
64242;SDS011;50573;51.512;5.386;2023-06-26T12:20:03;7.05;;;2.05;;
64242;SDS011;50573;51.512;5.386;2023-06-26T12:30:11;1.95;;;1.30;;
64242;SDS011;50573;51.512;5.386;2023-06-26T12:40:17;9.93;;;2.42;;
64242;SDS011;50573;51.512;5.386;2023-06-26T12:50:24;11.05;;;1.52;;
64242;SDS011;50573;51.512;5.386;2023-06-26T13:00:29;13.38;;;1.83;;
64242;SDS011;50573;51.512;5.386;2023-06-26T13:10:33;4.10;;;1.30;;
64242;SDS011;50573;51.512;5.386;2023-06-26T13:20:38;5.07;;;1.30;;
64242;SDS011;50573;51.512;5.386;2023-06-26T13:30:42;8.20;;;1.70;;
64242;SDS011;50573;51.512;5.386;2023-06-26T13:40:46;6.45;;;1.40;;
64242;SDS011;50573;51.512;5.386;2023-06-26T13:50:49;5.15;;;1.45;;
64242;SDS011;50573;51.512;5.386;2023-06-26T14:00:56;6.10;;;1.42;;
64242;SDS011;50573;51.512;5.386;2023-06-26T14:10:59;3.75;;;1.48;;
64242;SDS011;50573;51.512;5.386;2023-06-26T14:21:04;5.78;;;1.80;;
64242;SDS011;50573;51.512;5.386;2023-06-26T14:31:07;4.57;;;1.30;;
64242;SDS011;50573;51.512;5.386;2023-06-26T14:41:12;4.97;;;1.50;;
64242;SDS011;50573;51.512;5.386;2023-06-26T14:51:15;2.97;;;1.67;;
64242;SDS011;50573;51.512;5.386;2023-06-26T15:01:20;5.28;;;1.40;;
64242;SDS011;50573;51.512;5.386;2023-06-26T15:11:24;3.33;;;1.25;;
64242;SDS011;50573;51.512;5.386;2023-06-26T15:21:30;4.20;;;1.23;;
64242;SDS011;50573;51.512;5.386;2023-06-26T15:31:34;1.83;;;0.80;;
64242;SDS011;50573;51.512;5.386;2023-06-26T15:41:40;3.53;;;1.67;;
64242;SDS011;50573;51.512;5.386;2023-06-26T15:51:44;1.95;;;0.95;;
64242;SDS011;50573;51.512;5.386;2023-06-26T16:01:50;3.53;;;1.92;;
64242;SDS011;50573;51.512;5.386;2023-06-26T16:11:54;2.88;;;1.42;;
64242;SDS011;50573;51.512;5.386;2023-06-26T16:21:59;20.95;;;9.73;;
64242;SDS011;50573;51.512;5.386;2023-06-26T16:32:02;7.18;;;4.90;;
64242;SDS011;50573;51.512;5.386;2023-06-26T16:52:10;4.28;;;1.77;;
64242;SDS011;50573;51.512;5.386;2023-06-26T17:02:15;5.37;;;1.43;;
64242;SDS011;50573;51.512;5.386;2023-06-26T17:12:19;4.93;;;1.50;;
64242;SDS011;50573;51.512;5.386;2023-06-26T17:22:23;4.13;;;1.37;;
64242;SDS011;50573;51.512;5.386;2023-06-26T17:32:26;4.38;;;1.83;;
64242;SDS011;50573;51.512;5.386;2023-06-26T17:42:31;5.43;;;1.23;;
64242;SDS011;50573;51.512;5.386;2023-06-26T17:52:34;5.75;;;2.13;;
64242;SDS011;50573;51.512;5.386;2023-06-26T18:02:40;9.77;;;1.37;;
64242;SDS011;50573;51.512;5.386;2023-06-26T18:12:43;8.85;;;2.97;;
64242;SDS011;50573;51.512;5.386;2023-06-26T18:22:55;7.65;;;2.50;;
64242;SDS011;50573;51.512;5.386;2023-06-26T18:32:59;7.60;;;2.15;;
64242;SDS011;50573;51.512;5.386;2023-06-26T18:43:07;3.17;;;1.30;;
64242;SDS011;50573;51.512;5.386;2023-06-26T18:53:14;4.13;;;2.03;;
64242;SDS011;50573;51.512;5.386;2023-06-26T19:03:21;6.35;;;2.17;;
64242;SDS011;50573;51.512;5.386;2023-06-26T19:13:25;4.85;;;1.58;;
64242;SDS011;50573;51.512;5.386;2023-06-26T19:43:38;7.38;;;1.75;;
64242;SDS011;50573;51.512;5.386;2023-06-26T19:53:42;7.15;;;2.65;;
64242;SDS011;50573;51.512;5.386;2023-06-26T20:03:46;4.78;;;2.67;;
64242;SDS011;50573;51.512;5.386;2023-06-26T20:13:50;8.50;;;1.90;;
64242;SDS011;50573;51.512;5.386;2023-06-26T20:23:54;6.63;;;1.98;;
64242;SDS011;50573;51.512;5.386;2023-06-26T20:33:57;7.63;;;1.88;;
64242;SDS011;50573;51.512;5.386;2023-06-26T20:44:02;9.38;;;1.80;;
64242;SDS011;50573;51.512;5.386;2023-06-26T20:54:06;3.97;;;1.90;;
64242;SDS011;50573;51.512;5.386;2023-06-26T21:04:11;6.27;;;2.13;;
64242;SDS011;50573;51.512;5.386;2023-06-26T21:24:18;6.78;;;2.13;;
64242;SDS011;50573;51.512;5.386;2023-06-26T21:44:25;9.93;;;2.67;;
64242;SDS011;50573;51.512;5.386;2023-06-26T21:54:28;5.97;;;2.92;;
64242;SDS011;50573;51.512;5.386;2023-06-26T22:04:33;7.80;;;2.50;;
64242;SDS011;50573;51.512;5.386;2023-06-26T22:14:36;6.63;;;2.67;;
64242;SDS011;50573;51.512;5.386;2023-06-26T22:24:40;5.03;;;2.38;;
64242;SDS011;50573;51.512;5.386;2023-06-26T22:34:43;6.63;;;3.13;;
64242;SDS011;50573;51.512;5.386;2023-06-26T22:44:48;8.77;;;3.47;;
64242;SDS011;50573;51.512;5.386;2023-06-26T22:54:51;6.45;;;3.65;;
64242;SDS011;50573;51.512;5.386;2023-06-26T23:04:55;15.07;;;3.92;;
64242;SDS011;50573;51.512;5.386;2023-06-26T23:14:58;9.32;;;3.65;;
64242;SDS011;50573;51.512;5.386;2023-06-26T23:25:04;12.80;;;4.00;;
64242;SDS011;50573;51.512;5.386;2023-06-26T23:35:08;15.40;;;5.18;;
64242;SDS011;50573;51.512;5.386;2023-06-26T23:45:13;13.60;;;4.00;;
64242;SDS011;50573;51.512;5.386;2023-06-26T23:55:17;12.95;;;4.07;;
